Time;durP1;ratioP1;P1;durP2;ratioP2;P2;SDS_P1;SDS_P2;PMS_P1;PMS_P2;Temp;Humidity;BMP_temperature;BMP_pressure;BME280_temperature;BME280_humidity;BME280_pressure;Samples;Min_cycle;Max_cycle;Signal;HPM_P1;HPM_P2
2021/10/18 00:02:25;;;;;;;;;;;13.70;99.90;;;;;;5020474;28;861;-49
2021/10/18 00:04:52;;;;;;;;;;;13.70;99.90;;;;;;5020420;28;892;-49
2021/10/18 00:07:21;;;;;;;;;;;13.60;99.90;;;;;;5020518;28;1973;-49
2021/10/18 00:09:47;;;;;;;;;;;13.70;99.90;;;;;;5018995;28;1521;-49
2021/10/18 00:12:14;;;;;;;;;;;13.70;99.90;;;;;;5020176;28;838;-50
2021/10/18 00:14:43;;;;;;;;;;;13.60;99.90;;;;;;5020045;28;821;-50
2021/10/18 00:17:11;;;;;;;;;;;13.60;99.90;;;;;;5020236;28;814;-50
2021/10/18 00:19:38;;;;;;;;;;;13.60;99.90;;;;;;5035459;28;941;-50
2021/10/18 00:22:04;;;;;;;;;;;13.60;99.90;;;;;;5019487;28;1719;-50
2021/10/18 00:24:30;;;;;;;;;;;13.60;99.90;;;;;;5019712;28;1225;-50
2021/10/18 00:27:02;;;;;;;;;;;13.60;99.90;;;;;;5019668;28;839;-49
2021/10/18 00:29:29;;;;;;;;;;;13.60;99.90;;;;;;5019080;28;1982;-50
2021/10/18 00:31:55;;;;;;;;;;;13.60;99.90;;;;;;5019756;28;836;-50
2021/10/18 00:34:21;;;;;;;;;;;13.60;99.90;;;;;;5019905;28;1006;-50
2021/10/18 00:36:48;;;;;;;;;;;13.60;99.90;;;;;;5019916;28;788;-50
2021/10/18 00:39:20;;;;;;;;;;;13.60;99.90;;;;;;5019316;28;893;-50
2021/10/18 00:41:47;;;;;;;;;;;13.60;99.90;;;;;;5020769;28;1318;-50
2021/10/18 00:44:14;;;;;;;;;;;13.60;99.90;;;;;;5054535;28;941;-50
2021/10/18 00:46:43;;;;;;;;;;;13.60;99.90;;;;;;5005130;28;1563;-50
2021/10/18 00:49:11;;;;;;;;;;;13.50;99.90;;;;;;5037904;28;1966;-50
2021/10/18 00:51:38;;;;;;;;;;;13.50;99.90;;;;;;5034501;28;800;-50
2021/10/18 00:54:04;;;;;;;;;;;13.50;99.90;;;;;;5017926;28;926;-50
2021/10/18 00:56:32;;;;;;;;;;;13.50;99.90;;;;;;5019507;28;873;-50
2021/10/18 00:59:00;;;;;;;;;;;13.50;99.90;;;;;;5001651;28;873;-50
2021/10/18 01:01:27;;;;;;;;;;;13.50;99.90;;;;;;5017995;28;1053;-50
2021/10/18 01:03:55;;;;;;;;;;;13.50;99.90;;;;;;5034357;28;1160;-51
2021/10/18 01:06:22;;;;;;;;;;;13.50;99.90;;;;;;5018967;28;1389;-50
2021/10/18 01:08:49;;;;;;;;;;;13.50;99.90;;;;;;5019064;28;1961;-50
2021/10/18 01:11:17;;;;;;;;;;;13.50;99.90;;;;;;5019212;28;877;-50
2021/10/18 01:13:49;;;;;;;;;;;13.50;99.90;;;;;;5019090;28;805;-50
2021/10/18 01:16:17;;;;;;;;;;;13.50;99.90;;;;;;5019120;28;1143;-50
2021/10/18 01:18:44;;;;;;;;;;;13.50;99.90;;;;;;5018743;28;933;-50
2021/10/18 01:21:11;;;;;;;;;;;13.40;99.90;;;;;;5018058;28;886;-50
2021/10/18 01:23:37;;;;;;;;;;;13.40;99.90;;;;;;5018775;28;1002;-50
2021/10/18 01:26:05;;;;;;;;;;;13.40;99.90;;;;;;5018603;28;1294;-50
2021/10/18 01:28:33;;;;;;;;;;;13.40;99.90;;;;;;4984447;28;1903;-50
2021/10/18 01:30:59;;;;;;;;;;;13.40;99.90;;;;;;5018890;28;982;-50
2021/10/18 01:33:26;;;;;;;;;;;13.40;99.90;;;;;;5017714;28;904;-50
2021/10/18 01:35:58;;;;;;;;;;;13.40;99.90;;;;;;5018839;28;778;-49
2021/10/18 01:38:26;;;;;;;;;;;13.40;99.90;;;;;;5018710;28;873;-49
2021/10/18 01:40:53;;;;;;;;;;;13.30;99.90;;;;;;5018536;28;816;-50
2021/10/18 01:43:19;;;;;;;;;;;13.30;99.90;;;;;;5018092;28;969;-49
2021/10/18 01:45:46;;;;;;;;;;;13.30;99.90;;;;;;5018902;28;877;-50
2021/10/18 01:48:12;;;;;;;;;;;13.40;99.90;;;;;;5018245;28;1907;-49
2021/10/18 01:50:44;;;;;;;;;;;13.40;99.90;;;;;;5018240;28;834;-50
2021/10/18 01:53:11;;;;;;;;;;;13.30;99.90;;;;;;5017508;28;1214;-50
2021/10/18 01:55:38;;;;;;;;;;;13.30;99.90;;;;;;5016795;28;949;-49
2021/10/18 01:58:05;;;;;;;;;;;13.30;99.90;;;;;;5018231;28;785;-50
2021/10/18 02:00:32;;;;;;;;;;;13.30;99.90;;;;;;5018187;28;889;-48
2021/10/18 02:02:58;;;;;;;;;;;13.30;99.90;;;;;;5016954;28;869;-49
2021/10/18 02:05:26;;;;;;;;;;;13.30;99.90;;;;;;5017999;28;801;-49
2021/10/18 02:07:52;;;;;;;;;;;13.30;99.90;;;;;;5033245;28;1910;-49
2021/10/18 02:10:19;;;;;;;;;;;13.30;99.90;;;;;;5017998;28;809;-50
2021/10/18 02:12:46;;;;;;;;;;;13.30;99.90;;;;;;5017666;28;1137;-49
2021/10/18 02:15:17;;;;;;;;;;;13.30;99.90;;;;;;4983943;28;1080;-50
2021/10/18 02:17:45;;;;;;;;;;;13.30;99.90;;;;;;5018129;28;773;-50
2021/10/18 02:20:13;;;;;;;;;;;13.30;99.90;;;;;;5018014;28;733;-50
2021/10/18 02:22:39;;;;;;;;;;;13.30;99.90;;;;;;5016340;28;1355;-50
2021/10/18 02:25:08;;;;;;;;;;;13.30;99.90;;;;;;5016020;28;1342;-50
2021/10/18 02:27:34;;;;;;;;;;;13.30;99.90;;;;;;4999883;28;1866;-49
2021/10/18 02:30:02;;;;;;;;;;;13.30;99.90;;;;;;5015993;28;1968;-49
2021/10/18 02:32:28;;;;;;;;;;;13.30;99.90;;;;;;5000511;28;951;-50
2021/10/18 02:34:54;;;;;;;;;;;13.30;99.90;;;;;;5016638;28;1246;-50
2021/10/18 02:37:20;;;;;;;;;;;13.30;99.90;;;;;;5015820;28;932;-50
2021/10/18 02:39:47;;;;;;;;;;;13.30;99.90;;;;;;5018142;28;1476;-50
2021/10/18 02:42:13;;;;;;;;;;;13.30;99.90;;;;;;5015607;28;849;-50
2021/10/18 02:44:40;;;;;;;;;;;13.30;99.90;;;;;;5015977;28;904;-50
2021/10/18 02:47:08;;;;;;;;;;;13.30;99.90;;;;;;4998922;28;918;-50
2021/10/18 02:49:36;;;;;;;;;;;13.20;99.90;;;;;;5015524;28;1935;-50
2021/10/18 02:52:05;;;;;;;;;;;13.30;99.90;;;;;;5015781;28;780;-50
2021/10/18 02:54:31;;;;;;;;;;;13.30;99.90;;;;;;5015280;28;933;-49
2021/10/18 02:56:57;;;;;;;;;;;13.30;99.90;;;;;;4982801;28;1239;-50
2021/10/18 02:59:23;;;;;;;;;;;13.20;99.90;;;;;;4982907;28;1204;-49
2021/10/18 03:01:50;;;;;;;;;;;13.20;99.90;;;;;;5015684;28;956;-49
2021/10/18 03:04:16;;;;;;;;;;;13.30;99.90;;;;;;5015448;28;919;-49
2021/10/18 03:06:43;;;;;;;;;;;13.30;99.90;;;;;;5015297;28;842;-49
2021/10/18 03:09:11;;;;;;;;;;;13.20;99.90;;;;;;5015377;28;1977;-49
2021/10/18 03:11:37;;;;;;;;;;;13.20;99.90;;;;;;5015529;28;889;-49
2021/10/18 03:14:04;;;;;;;;;;;13.20;99.90;;;;;;4997851;28;903;-49
2021/10/18 03:16:31;;;;;;;;;;;13.20;99.90;;;;;;4997884;28;889;-49
2021/10/18 03:18:58;;;;;;;;;;;13.20;99.90;;;;;;5012380;28;845;-49
2021/10/18 03:21:25;;;;;;;;;;;13.20;99.90;;;;;;5002066;28;903;-49
2021/10/18 03:23:51;;;;;;;;;;;13.20;99.90;;;;;;5016208;28;852;-49
2021/10/18 03:26:18;;;;;;;;;;;13.20;99.90;;;;;;5015019;28;1161;-49
2021/10/18 03:28:46;;;;;;;;;;;13.20;99.90;;;;;;5016540;28;1973;-48
2021/10/18 03:31:12;;;;;;;;;;;13.20;99.90;;;;;;5015571;28;968;-48
2021/10/18 03:33:40;;;;;;;;;;;13.20;99.90;;;;;;5016720;28;1040;-50
2021/10/18 03:36:08;;;;;;;;;;;13.20;99.90;;;;;;5031739;28;841;-49
2021/10/18 03:38:36;;;;;;;;;;;13.20;99.90;;;;;;5015849;28;896;-49
2021/10/18 03:41:02;;;;;;;;;;;13.20;99.90;;;;;;5016380;28;852;-48
2021/10/18 03:43:29;;;;;;;;;;;13.20;99.90;;;;;;5015685;28;786;-48
2021/10/18 03:45:56;;;;;;;;;;;13.20;99.90;;;;;;5031454;28;917;-50
2021/10/18 03:48:24;;;;;;;;;;;13.10;99.90;;;;;;5016576;28;1953;-49
2021/10/18 03:50:49;;;;;;;;;;;13.10;99.90;;;;;;5015429;28;944;-49
2021/10/18 03:53:16;;;;;;;;;;;13.10;99.90;;;;;;5016892;28;963;-49
2021/10/18 03:55:42;;;;;;;;;;;13.10;99.90;;;;;;5016333;28;1031;-48
2021/10/18 03:58:10;;;;;;;;;;;13.10;99.90;;;;;;5016412;28;786;-49
2021/10/18 04:00:36;;;;;;;;;;;13.10;99.90;;;;;;5016518;28;939;-49
2021/10/18 04:03:03;;;;;;;;;;;13.10;99.90;;;;;;5016450;28;929;-49
2021/10/18 04:05:30;;;;;;;;;;;13.10;99.90;;;;;;5016153;28;1014;-49
2021/10/18 04:07:56;;;;;;;;;;;13.10;99.90;;;;;;5016179;28;1906;-49
2021/10/18 04:10:22;;;;;;;;;;;13.10;99.90;;;;;;5015967;28;901;-49
2021/10/18 04:12:47;;;;;;;;;;;13.10;99.90;;;;;;5015978;28;861;-49
2021/10/18 04:15:14;;;;;;;;;;;13.10;99.90;;;;;;5016314;28;857;-49
2021/10/18 04:17:42;;;;;;;;;;;13.10;99.90;;;;;;5016319;28;884;-49
2021/10/18 04:20:11;;;;;;;;;;;13.10;99.90;;;;;;5016315;28;923;-49
2021/10/18 04:22:38;;;;;;;;;;;13.10;99.90;;;;;;5014773;28;984;-49
2021/10/18 04:25:08;;;;;;;;;;;13.10;99.90;;;;;;5015741;28;1423;-49
2021/10/18 04:27:35;;;;;;;;;;;13.10;99.90;;;;;;5015824;28;850;-49
2021/10/18 04:30:02;;;;;;;;;;;13.10;99.90;;;;;;5016203;28;1910;-49
2021/10/18 04:32:28;;;;;;;;;;;13.10;99.90;;;;;;5019571;28;1338;-49
2021/10/18 04:34:55;;;;;;;;;;;13.10;99.90;;;;;;5035559;28;889;-49
2021/10/18 04:37:21;;;;;;;;;;;13.10;99.90;;;;;;5021662;28;906;-49
2021/10/18 04:39:47;;;;;;;;;;;13.00;99.90;;;;;;5039457;28;939;-49
2021/10/18 04:42:14;;;;;;;;;;;13.00;99.90;;;;;;5039557;28;801;-49
2021/10/18 04:44:40;;;;;;;;;;;13.00;99.90;;;;;;5039570;28;803;-49
2021/10/18 04:47:08;;;;;;;;;;;13.00;99.90;;;;;;5039251;28;931;-49
2021/10/18 04:49:37;;;;;;;;;;;13.00;99.90;;;;;;5039247;28;1906;-49
2021/10/18 04:52:03;;;;;;;;;;;13.00;99.90;;;;;;5025677;28;904;-49
2021/10/18 04:54:29;;;;;;;;;;;13.10;99.90;;;;;;4999613;28;872;-49
2021/10/18 04:56:56;;;;;;;;;;;13.10;99.90;;;;;;4999301;28;853;-49
2021/10/18 04:59:23;;;;;;;;;;;13.10;99.90;;;;;;5014464;28;1048;-49
2021/10/18 05:01:49;;;;;;;;;;;13.20;99.90;;;;;;4966954;28;1048;-49
2021/10/18 05:04:15;;;;;;;;;;;13.30;99.90;;;;;;4999768;28;790;-49
2021/10/18 05:06:42;;;;;;;;;;;13.40;99.90;;;;;;5000025;28;953;-49
2021/10/18 05:09:08;;;;;;;;;;;13.50;99.90;;;;;;4999867;28;1898;-49
2021/10/18 05:11:36;;;;;;;;;;;13.70;99.90;;;;;;4999839;28;874;-49
2021/10/18 05:14:02;;;;;;;;;;;13.80;99.90;;;;;;4998873;28;983;-49
2021/10/18 05:16:30;;;;;;;;;;;14.00;99.90;;;;;;5014324;28;1010;-49
2021/10/18 05:19:02;;;;;;;;;;;14.10;99.90;;;;;;4999986;28;900;-49
2021/10/18 05:21:29;;;;;;;;;;;14.10;99.90;;;;;;5003634;28;878;-48
2021/10/18 05:23:55;;;;;;;;;;;14.20;99.90;;;;;;5018848;28;842;-50
2021/10/18 05:26:21;;;;;;;;;;;14.20;99.90;;;;;;5018546;28;1201;-50
2021/10/18 05:28:48;;;;;;;;;;;14.20;99.90;;;;;;5018759;28;1915;-49
2021/10/18 05:31:14;;;;;;;;;;;14.20;99.90;;;;;;5007323;28;1628;-50
2021/10/18 05:33:43;;;;;;;;;;;14.30;99.90;;;;;;5015444;28;1269;-50
2021/10/18 05:36:09;;;;;;;;;;;14.30;99.90;;;;;;5018735;28;939;-49
2021/10/18 05:38:35;;;;;;;;;;;14.20;99.90;;;;;;5017307;28;933;-50
2021/10/18 05:41:01;;;;;;;;;;;14.20;99.90;;;;;;5018226;28;944;-50
2021/10/18 05:43:28;;;;;;;;;;;14.20;99.90;;;;;;5016891;28;903;-50
2021/10/18 05:45:54;;;;;;;;;;;14.20;99.90;;;;;;5018649;28;838;-50
2021/10/18 05:48:21;;;;;;;;;;;14.20;99.90;;;;;;5017781;28;1906;-50
2021/10/18 05:50:48;;;;;;;;;;;14.10;99.90;;;;;;5018300;28;786;-50
2021/10/18 05:53:16;;;;;;;;;;;14.10;99.90;;;;;;5018403;28;898;-50
2021/10/18 05:55:44;;;;;;;;;;;14.10;99.90;;;;;;5029682;28;1597;-49
2021/10/18 05:58:11;;;;;;;;;;;14.10;99.90;;;;;;5000373;28;1033;-49
2021/10/18 06:00:36;;;;;;;;;;;14.10;99.90;;;;;;5018395;28;897;-50
2021/10/18 06:03:05;;;;;;;;;;;14.10;99.90;;;;;;5018178;28;1088;-50
2021/10/18 06:05:31;;;;;;;;;;;14.00;99.90;;;;;;5018154;28;846;-50
2021/10/18 06:08:06;;;;;;;;;;;14.00;99.90;;;;;;5018219;28;775;-50
2021/10/18 06:10:33;;;;;;;;;;;14.00;99.90;;;;;;5016325;28;1910;-50
2021/10/18 06:12:59;;;;;;;;;;;13.90;99.90;;;;;;5016765;28;1250;-49
2021/10/18 06:15:26;;;;;;;;;;;14.00;99.90;;;;;;5017802;28;813;-49
2021/10/18 06:17:55;;;;;;;;;;;13.90;99.90;;;;;;5018024;28;862;-49
2021/10/18 06:20:40;;;;;;;;;;;13.90;99.90;;;;;;5017960;28;917;-50
2021/10/18 06:23:08;;;;;;;;;;;13.90;99.90;;;;;;5013662;28;846;-50
2021/10/18 06:25:36;;;;;;;;;;;13.90;99.90;;;;;;4998688;28;1192;-49
2021/10/18 06:28:03;;;;;;;;;;;13.90;99.90;;;;;;5001785;28;1233;-49
2021/10/18 06:30:30;;;;;;;;;;;13.90;99.90;;;;;;5017487;28;1971;-50
2021/10/18 06:32:57;;;;;;;;;;;13.80;99.90;;;;;;5017400;28;983;-50
2021/10/18 06:35:24;;;;;;;;;;;13.80;99.90;;;;;;5017386;28;825;-49
2021/10/18 06:37:51;;;;;;;;;;;13.80;99.90;;;;;;5017627;28;871;-49
2021/10/18 06:40:18;;;;;;;;;;;13.80;99.90;;;;;;5016846;28;894;-49
2021/10/18 06:42:45;;;;;;;;;;;13.70;99.90;;;;;;5017463;28;963;-50
2021/10/18 06:45:12;;;;;;;;;;;13.70;99.90;;;;;;5017576;28;1032;-50
2021/10/18 06:47:39;;;;;;;;;;;13.70;99.90;;;;;;5015536;28;1198;-50
2021/10/18 06:50:06;;;;;;;;;;;13.70;99.90;;;;;;5016862;28;1965;-50
2021/10/18 06:52:36;;;;;;;;;;;13.70;99.90;;;;;;5017927;28;866;-50
2021/10/18 06:55:05;;;;;;;;;;;13.70;99.90;;;;;;5015962;28;937;-50
2021/10/18 06:57:32;;;;;;;;;;;13.70;99.90;;;;;;5017092;28;904;-49
2021/10/18 07:00:03;;;;;;;;;;;13.70;99.90;;;;;;5016327;28;812;-49
2021/10/18 07:02:31;;;;;;;;;;;13.70;99.90;;;;;;5015960;28;853;-50
2021/10/18 07:04:57;;;;;;;;;;;13.70;99.90;;;;;;5017228;28;974;-49
2021/10/18 07:07:26;;;;;;;;;;;13.70;99.90;;;;;;5015910;28;1121;-49
2021/10/18 07:10:05;;;;;;;;;;;13.70;99.90;;;;;;5016599;28;1971;-49
2021/10/18 07:12:37;;;;;;;;;;;13.70;99.90;;;;;;4999925;28;952;-49
2021/10/18 07:15:03;;;;;;;;;;;13.70;99.90;;;;;;5015737;28;912;-49
2021/10/18 07:17:32;;;;;;;;;;;13.70;99.90;;;;;;5015612;28;855;-50
2021/10/18 07:19:59;;;;;;;;;;;13.70;99.90;;;;;;5016650;28;896;-49
2021/10/18 07:22:35;;;;;;;;;;;13.70;99.90;;;;;;4983654;28;1020;-50
2021/10/18 07:25:05;;;;;;;;;;;13.70;99.90;;;;;;5015527;28;1137;-49
2021/10/18 07:27:36;;;;;;;;;;;13.80;99.90;;;;;;5016941;28;834;-50
2021/10/18 07:30:05;;;;;;;;;;;13.80;99.90;;;;;;5016559;28;1891;-50
2021/10/18 07:32:33;;;;;;;;;;;13.80;99.90;;;;;;5015841;28;785;-49
2021/10/18 07:35:04;;;;;;;;;;;13.80;99.90;;;;;;5015695;28;845;-49
2021/10/18 07:37:30;;;;;;;;;;;13.80;99.90;;;;;;5031571;28;1479;-49
2021/10/18 07:39:57;;;;;;;;;;;13.80;99.90;;;;;;5016499;28;926;-50
2021/10/18 07:42:23;;;;;;;;;;;13.80;99.90;;;;;;5031317;28;1010;-50
2021/10/18 07:44:53;;;;;;;;;;;13.80;99.90;;;;;;5034424;28;1046;-50
2021/10/18 07:47:21;;;;;;;;;;;13.80;99.90;;;;;;5018056;28;952;-49
2021/10/18 07:49:50;;;;;;;;;;;13.80;99.90;;;;;;5018144;28;1906;-49
2021/10/18 07:52:21;;;;;;;;;;;13.80;99.90;;;;;;5018181;28;965;-50
2021/10/18 07:54:52;;;;;;;;;;;13.90;99.90;;;;;;5034456;28;951;-50
2021/10/18 07:57:20;;;;;;;;;;;13.90;99.90;;;;;;5034212;28;827;-49
2021/10/18 07:59:47;;;;;;;;;;;13.90;99.90;;;;;;4994999;28;940;-49
2021/10/18 08:02:14;;;;;;;;;;;13.90;99.90;;;;;;4995270;28;954;-50
2021/10/18 08:04:44;;;;;;;;;;;13.90;99.90;;;;;;4995141;28;838;-50
2021/10/18 08:07:15;;;;;;;;;;;13.90;99.90;;;;;;4978976;28;1047;-50
2021/10/18 08:09:45;;;;;;;;;;;14.00;99.90;;;;;;4994834;28;1907;-50
2021/10/18 08:12:11;;;;;;;;;;;14.10;99.90;;;;;;4966200;28;928;-50
2021/10/18 08:14:39;;;;;;;;;;;14.20;99.90;;;;;;4998710;28;844;-50
2021/10/18 08:17:06;;;;;;;;;;;14.40;99.90;;;;;;4998793;28;1042;-48
2021/10/18 08:19:32;;;;;;;;;;;14.70;99.90;;;;;;4998829;28;1102;-48
2021/10/18 08:21:59;;;;;;;;;;;14.80;99.90;;;;;;4967047;28;966;-48
2021/10/18 08:24:25;;;;;;;;;;;14.70;99.90;;;;;;5001582;28;1525;-49
2021/10/18 08:26:51;;;;;;;;;;;14.60;99.90;;;;;;5002057;28;1255;-49
2021/10/18 08:29:18;;;;;;;;;;;14.60;99.90;;;;;;5018252;28;1906;-50
2021/10/18 08:31:45;;;;;;;;;;;14.50;99.90;;;;;;5036337;28;846;-49
2021/10/18 08:34:10;;;;;;;;;;;14.40;99.90;;;;;;5040390;28;1371;-49
2021/10/18 08:36:37;;;;;;;;;;;14.30;99.90;;;;;;5021559;28;1046;-49
2021/10/18 08:41:49;;;;;;;;;;;14.30;99.90;;;;;;5037873;28;800;-49
2021/10/18 08:44:15;;;;;;;;;;;14.30;99.90;;;;;;5004885;28;957;-49
2021/10/18 08:46:42;;;;;;;;;;;14.30;99.90;;;;;;4989008;28;990;-50
2021/10/18 08:49:11;;;;;;;;;;;14.30;99.90;;;;;;5021257;28;1906;-50
2021/10/18 08:51:37;;;;;;;;;;;14.20;99.90;;;;;;5043590;28;1070;-50
2021/10/18 08:54:04;;;;;;;;;;;14.20;99.90;;;;;;5024548;28;988;-49
2021/10/18 08:56:30;;;;;;;;;;;14.30;99.90;;;;;;5019104;28;1450;-49
2021/10/18 08:58:56;;;;;;;;;;;14.30;99.90;;;;;;5019340;28;813;-49
2021/10/18 09:01:39;;;;;;;;;;;14.30;99.90;;;;;;5017906;28;1051;-49
2021/10/18 09:04:28;;;;;;;;;;;14.30;99.90;;;;;;5019427;28;789;-49
2021/10/18 09:07:08;;;;;;;;;;;14.30;99.90;;;;;;5051597;28;900;-49
2021/10/18 09:09:45;;;;;;;;;;;14.30;99.90;;;;;;5001426;28;1969;-49
2021/10/18 09:12:39;;;;;;;;;;;14.30;99.90;;;;;;5019298;28;811;-49
2021/10/18 09:15:25;;;;;;;;;;;14.30;99.90;;;;;;5018641;28;1052;-49
2021/10/18 09:17:53;;;;;;;;;;;14.30;99.90;;;;;;4985181;28;884;-51
2021/10/18 09:20:22;;;;;;;;;;;14.30;99.90;;;;;;5017986;28;992;-48
2021/10/18 09:22:49;;;;;;;;;;;14.30;99.90;;;;;;5018706;28;793;-48
2021/10/18 09:25:34;;;;;;;;;;;14.40;99.90;;;;;;4984518;28;1189;-49
2021/10/18 09:28:07;;;;;;;;;;;14.40;99.90;;;;;;5019470;28;1223;-49
2021/10/18 09:30:36;;;;;;;;;;;14.40;99.90;;;;;;4984759;28;1906;-48
2021/10/18 09:33:13;;;;;;;;;;;14.40;99.90;;;;;;5018874;28;781;-49
2021/10/18 09:35:40;;;;;;;;;;;14.40;99.90;;;;;;5001417;28;1502;-49
2021/10/18 09:38:08;;;;;;;;;;;14.40;99.90;;;;;;5033816;28;927;-49
2021/10/18 09:40:45;;;;;;;;;;;14.40;99.90;;;;;;5017298;28;843;-49
2021/10/18 09:43:18;;;;;;;;;;;14.40;99.90;;;;;;5017090;28;1268;-49
2021/10/18 09:45:58;;;;;;;;;;;14.40;99.90;;;;;;5017533;28;1040;-50
2021/10/18 10:53:28;;;;;;;;;;;14.80;99.90;;;;;;5019627;28;845;-50
2021/10/18 10:55:58;;;;;;;;;;;14.80;99.90;;;;;;5016872;28;912;-49
2021/10/18 10:58:35;;;;;;;;;;;14.80;99.90;;;;;;5015859;28;910;-49
2021/10/18 11:01:02;;;;;;;;;;;14.80;99.90;;;;;;5016115;28;955;-49
2021/10/18 11:03:41;;;;;;;;;;;14.80;99.90;;;;;;4999420;28;1018;-49
2021/10/18 11:06:12;;;;;;;;;;;14.80;99.90;;;;;;5016863;28;996;-50
2021/10/18 11:08:58;;;;;;;;;;;14.90;99.90;;;;;;5017098;28;750;-48
2021/10/18 11:11:26;;;;;;;;;;;14.90;99.90;;;;;;5015396;28;1027;-48
2021/10/18 11:13:56;;;;;;;;;;;15.00;99.90;;;;;;5015094;28;1221;-49
2021/10/18 11:16:23;;;;;;;;;;;14.90;99.90;;;;;;5014786;28;1130;-49
2021/10/18 11:18:55;;;;;;;;;;;15.00;99.90;;;;;;5014537;28;843;-48
2021/10/18 11:21:41;;;;;;;;;;;15.00;99.90;;;;;;5016260;28;993;-49
2021/10/18 11:24:09;;;;;;;;;;;15.00;99.90;;;;;;4998656;28;1234;-50
2021/10/18 11:26:41;;;;;;;;;;;15.10;99.90;;;;;;4976975;28;1568;-49
2021/10/18 11:29:10;;;;;;;;;;;15.00;99.90;;;;;;5002557;28;1922;-50
2021/10/18 11:31:57;;;;;;;;;;;15.00;99.90;;;;;;4979664;28;897;-49
2021/10/18 11:34:26;;;;;;;;;;;15.10;99.90;;;;;;4957167;29;1187;-50
2021/10/18 11:36:54;;;;;;;;;;;15.10;99.90;;;;;;4956842;29;904;-49
2021/10/18 11:39:22;;;;;;;;;;;15.10;99.90;;;;;;4956707;29;1015;-49
2021/10/18 11:41:59;;;;;;;;;;;15.10;99.90;;;;;;4964044;28;1533;-50
2021/10/18 11:44:44;;;;;;;;;;;15.10;99.90;;;;;;4958019;28;876;-50
2021/10/18 11:47:23;;;;;;;;;;;15.20;99.90;;;;;;4955804;29;996;-48
2021/10/18 11:50:26;;;;;;;;;;;15.20;99.90;;;;;;4956410;29;1914;-48
2021/10/18 11:52:57;;;;;;;;;;;15.20;99.90;;;;;;4936872;29;1054;-50
2021/10/18 11:55:26;;;;;;;;;;;15.20;99.90;;;;;;4940276;29;970;-50
2021/10/18 11:57:52;;;;;;;;;;;15.20;99.90;;;;;;4956930;29;1027;-50
2021/10/18 12:00:26;;;;;;;;;;;15.20;99.90;;;;;;4956102;29;864;-50
2021/10/18 12:02:59;;;;;;;;;;;15.30;99.90;;;;;;4940361;29;1008;-51
2021/10/18 12:05:33;;;;;;;;;;;15.30;99.90;;;;;;4955992;29;914;-49
2021/10/18 12:08:00;;;;;;;;;;;15.30;99.90;;;;;;4940595;29;1194;-50
2021/10/18 12:10:29;;;;;;;;;;;15.30;99.90;;;;;;4958492;28;1891;-49
2021/10/18 12:13:05;;;;;;;;;;;15.30;99.90;;;;;;4979401;28;1084;-48
2021/10/18 12:15:45;;;;;;;;;;;15.40;99.90;;;;;;4962399;28;946;-48
2021/10/18 12:18:13;;;;;;;;;;;15.30;99.90;;;;;;4994756;28;983;-49
2021/10/18 12:20:46;;;;;;;;;;;15.40;99.90;;;;;;4997107;28;984;-50
2021/10/18 12:23:17;;;;;;;;;;;15.40;99.90;;;;;;4962532;28;1049;-49
2021/10/18 12:25:52;;;;;;;;;;;15.40;99.90;;;;;;4995576;28;1440;-49
2021/10/18 12:28:39;;;;;;;;;;;15.40;99.90;;;;;;5016441;28;770;-49
2021/10/18 12:31:22;;;;;;;;;;;15.40;99.90;;;;;;5016074;28;1961;-49
2021/10/18 12:33:58;;;;;;;;;;;15.40;99.90;;;;;;5015776;28;927;-50
2021/10/18 12:36:25;;;;;;;;;;;15.40;99.90;;;;;;5017005;28;1327;-50
2021/10/18 12:38:53;;;;;;;;;;;15.40;99.90;;;;;;5032994;28;1575;-50
2021/10/18 12:41:22;;;;;;;;;;;15.40;99.90;;;;;;5036266;28;896;-50
2021/10/18 12:43:49;;;;;;;;;;;15.30;99.90;;;;;;5036028;28;987;-49
2021/10/18 12:46:18;;;;;;;;;;;15.40;99.90;;;;;;5035590;28;1207;-50
2021/10/18 12:48:57;;;;;;;;;;;15.40;99.90;;;;;;5035660;28;837;-49
2021/10/18 12:51:41;;;;;;;;;;;15.40;99.90;;;;;;5032445;28;1902;-49
2021/10/18 12:54:21;;;;;;;;;;;15.40;99.90;;;;;;5016020;28;907;-49
2021/10/18 12:57:07;;;;;;;;;;;15.40;99.90;;;;;;5015632;28;944;-49
2021/10/18 12:59:35;;;;;;;;;;;15.30;99.90;;;;;;5018294;28;900;-49
2021/10/18 13:02:23;;;;;;;;;;;15.30;99.90;;;;;;5019163;28;885;-49
2021/10/18 13:05:14;;;;;;;;;;;15.30;99.90;;;;;;5032776;28;1053;-49
2021/10/18 13:07:55;;;;;;;;;;;15.30;99.90;;;;;;5017760;28;881;-49
2021/10/18 13:10:30;;;;;;;;;;;15.30;99.90;;;;;;5017222;28;1902;-49
2021/10/18 13:12:57;;;;;;;;;;;15.30;99.90;;;;;;5017647;28;1147;-49
2021/10/18 13:15:25;;;;;;;;;;;15.30;99.90;;;;;;5001033;28;806;-49
2021/10/18 13:17:53;;;;;;;;;;;15.30;99.90;;;;;;5018022;28;897;-49
2021/10/18 13:20:23;;;;;;;;;;;15.30;99.90;;;;;;5017741;28;924;-49
2021/10/18 13:22:52;;;;;;;;;;;15.30;99.90;;;;;;5017326;28;979;-49
2021/10/18 13:25:20;;;;;;;;;;;15.30;99.90;;;;;;5016673;28;1264;-48
2021/10/18 13:27:48;;;;;;;;;;;15.30;99.90;;;;;;5000941;28;1047;-49
2021/10/18 13:30:15;;;;;;;;;;;15.30;99.90;;;;;;5017133;28;1967;-49
2021/10/18 13:32:42;;;;;;;;;;;15.30;99.90;;;;;;4984695;28;1091;-50
2021/10/18 13:35:10;;;;;;;;;;;15.30;99.90;;;;;;5017126;28;900;-50
2021/10/18 13:37:37;;;;;;;;;;;15.30;99.90;;;;;;5000397;28;947;-48
2021/10/18 13:40:06;;;;;;;;;;;15.30;99.90;;;;;;4997962;28;758;-49
2021/10/18 13:42:33;;;;;;;;;;;15.30;99.90;;;;;;5030511;28;1385;-50
2021/10/18 13:45:04;;;;;;;;;;;15.30;99.90;;;;;;4999390;28;896;-50
2021/10/18 13:47:30;;;;;;;;;;;15.30;99.90;;;;;;4998624;28;936;-50
2021/10/18 13:49:56;;;;;;;;;;;15.20;99.90;;;;;;4998817;28;1972;-50
2021/10/18 13:52:23;;;;;;;;;;;15.30;99.90;;;;;;5011329;28;876;-48
2021/10/18 13:54:52;;;;;;;;;;;15.30;99.90;;;;;;5018057;28;1011;-49
2021/10/18 13:57:20;;;;;;;;;;;15.30;99.90;;;;;;5017493;28;1192;-50
2021/10/18 13:59:50;;;;;;;;;;;15.20;99.90;;;;;;5016944;28;961;-49
2021/10/18 14:02:20;;;;;;;;;;;15.20;99.90;;;;;;5018313;28;885;-49
2021/10/18 14:04:47;;;;;;;;;;;15.30;99.90;;;;;;4984524;28;955;-50
2021/10/18 14:07:15;;;;;;;;;;;15.20;99.90;;;;;;5018269;28;948;-49
2021/10/18 14:09:42;;;;;;;;;;;15.20;99.90;;;;;;5032312;28;1971;-50
2021/10/18 14:12:11;;;;;;;;;;;15.20;99.90;;;;;;5018182;28;778;-52
2021/10/18 14:14:41;;;;;;;;;;;15.20;99.90;;;;;;4983881;28;975;-48
2021/10/18 14:17:12;;;;;;;;;;;15.20;99.90;;;;;;5018052;28;1008;-49
2021/10/18 14:19:40;;;;;;;;;;;15.20;99.90;;;;;;5018230;28;893;-49
2021/10/18 14:22:07;;;;;;;;;;;15.20;99.90;;;;;;5018358;28;904;-49
2021/10/18 14:24:37;;;;;;;;;;;15.20;99.90;;;;;;5017568;28;1039;-48
2021/10/18 14:27:04;;;;;;;;;;;15.20;99.90;;;;;;4983927;28;899;-50
2021/10/18 14:29:31;;;;;;;;;;;15.20;99.90;;;;;;5016527;28;1969;-48
2021/10/18 14:31:58;;;;;;;;;;;15.20;99.90;;;;;;5017716;28;924;-49
2021/10/18 14:34:42;;;;;;;;;;;15.20;99.90;;;;;;5017117;28;569;-49
2021/10/18 14:37:09;;;;;;;;;;;15.20;99.90;;;;;;5017487;28;758;-48
2021/10/18 14:39:40;;;;;;;;;;;15.20;99.90;;;;;;5025466;28;1362;-48
2021/10/18 14:42:06;;;;;;;;;;;15.20;99.90;;;;;;5037386;28;754;-49
2021/10/18 14:44:33;;;;;;;;;;;15.20;99.90;;;;;;5036943;28;828;-48
2021/10/18 14:47:01;;;;;;;;;;;15.20;99.90;;;;;;5036993;28;857;-49
2021/10/18 14:49:28;;;;;;;;;;;15.20;99.90;;;;;;5037291;28;789;-49
2021/10/18 14:51:54;;;;;;;;;;;15.20;99.90;;;;;;5029692;28;914;-50
2021/10/18 14:54:22;;;;;;;;;;;15.20;99.90;;;;;;5017622;28;1016;-50
2021/10/18 14:56:50;;;;;;;;;;;15.20;99.90;;;;;;5016807;28;986;-49
2021/10/18 14:59:17;;;;;;;;;;;15.10;99.90;;;;;;5017501;28;750;-49
2021/10/18 15:01:44;;;;;;;;;;;15.20;99.90;;;;;;5016930;28;823;-49
2021/10/18 15:04:10;;;;;;;;;;;15.20;99.90;;;;;;4999459;28;1164;-49
2021/10/18 15:06:37;;;;;;;;;;;15.10;99.90;;;;;;5017171;28;886;-49
2021/10/18 15:09:04;;;;;;;;;;;15.10;99.90;;;;;;5016936;28;861;-50
2021/10/18 15:11:33;;;;;;;;;;;15.10;99.90;;;;;;5016620;28;1961;-50
2021/10/18 15:16:33;;;;;;;;;;;15.10;99.90;;;;;;4953319;28;1828;-49
2021/10/18 15:18:59;;;;;;;;;;;15.10;99.90;;;;;;4958651;28;842;-48
2021/10/18 15:21:27;;;;;;;;;;;15.10;99.90;;;;;;4957988;28;837;-49
2021/10/18 15:23:53;;;;;;;;;;;15.10;99.90;;;;;;4958575;28;854;-48
2021/10/18 15:26:19;;;;;;;;;;;15.10;99.90;;;;;;4959117;28;891;-50
2021/10/18 15:28:45;;;;;;;;;;;15.10;99.90;;;;;;4958346;28;888;-50
2021/10/18 15:31:12;;;;;;;;;;;15.10;99.90;;;;;;4957983;28;1914;-48
2021/10/18 15:33:40;;;;;;;;;;;15.10;99.90;;;;;;4958288;28;896;-49
2021/10/18 15:36:08;;;;;;;;;;;15.10;99.90;;;;;;4958301;28;854;-49
2021/10/18 15:38:35;;;;;;;;;;;15.10;99.90;;;;;;4958495;28;768;-49
2021/10/18 15:41:01;;;;;;;;;;;15.10;99.90;;;;;;4958274;28;843;-49
2021/10/18 15:43:28;;;;;;;;;;;15.10;99.90;;;;;;4958386;28;861;-49
2021/10/18 15:45:55;;;;;;;;;;;15.00;99.90;;;;;;4957827;28;862;-49
2021/10/18 15:48:22;;;;;;;;;;;15.10;99.90;;;;;;4958329;28;871;-49
2021/10/18 15:50:48;;;;;;;;;;;15.00;99.90;;;;;;4957932;28;1907;-49
2021/10/18 15:53:15;;;;;;;;;;;15.00;99.90;;;;;;4957128;29;857;-49
2021/10/18 15:55:44;;;;;;;;;;;15.00;99.90;;;;;;4957973;28;853;-49
2021/10/18 15:58:11;;;;;;;;;;;15.00;99.90;;;;;;4958272;28;811;-49
2021/10/18 16:00:38;;;;;;;;;;;15.00;99.90;;;;;;4973259;28;996;-49